Time;durP1;ratioP1;P1;durP2;ratioP2;P2;SDS_P1;SDS_P2;PMS_P1;PMS_P2;Temp;Humidity;BMP_temperature;BMP_pressure;BME280_temperature;BME280_humidity;BME280_pressure;Samples;Min_cycle;Max_cycle;Signal;HPM_P1;HPM_P2
2021/09/12 00:01:41;;;;;;;10.05;3.97;;;18.30;99.90;;;;;;4983870;28;20203;-81
2021/09/12 00:04:08;;;;;;;14.85;4.20;;;18.30;99.90;;;;;;4984007;28;20219;-81
2021/09/12 00:06:35;;;;;;;14.15;4.93;;;18.30;99.90;;;;;;4982664;28;20618;-83
2021/09/12 00:09:03;;;;;;;23.13;5.20;;;18.30;99.90;;;;;;4983489;28;20216;-82
2021/09/12 00:11:30;;;;;;;18.30;5.65;;;18.30;99.90;;;;;;4983355;28;20215;-81
2021/09/12 00:13:57;;;;;;;13.50;5.00;;;18.20;99.90;;;;;;4982191;28;20204;-81
2021/09/12 00:16:24;;;;;;;8.70;4.47;;;18.20;99.90;;;;;;4984075;28;20223;-82
2021/09/12 00:18:50;;;;;;;15.50;4.25;;;18.10;99.90;;;;;;4983705;28;20207;-81
2021/09/12 00:21:17;;;;;;;12.73;4.68;;;18.10;99.90;;;;;;4983504;28;20808;-81
2021/09/12 00:23:44;;;;;;;13.00;3.95;;;18.10;99.90;;;;;;4982971;28;20211;-83
2021/09/12 00:26:12;;;;;;;13.30;3.72;;;18.00;99.90;;;;;;4984499;28;20249;-82
2021/09/12 00:28:39;;;;;;;11.07;3.60;;;18.00;99.90;;;;;;4983314;28;20230;-80
2021/09/12 00:31:06;;;;;;;17.98;4.38;;;18.00;99.90;;;;;;4995537;28;20207;-82
2021/09/12 00:33:33;;;;;;;13.18;3.90;;;18.00;99.90;;;;;;5004611;28;20207;-81
2021/09/12 00:35:59;;;;;;;12.38;3.65;;;18.00;99.90;;;;;;5002118;28;20203;-81
2021/09/12 00:38:26;;;;;;;15.38;4.05;;;18.00;99.90;;;;;;4988855;28;20208;-82
2021/09/12 00:40:57;;;;;;;11.25;3.88;;;18.00;99.90;;;;;;4982614;28;20207;-80
2021/09/12 00:43:25;;;;;;;11.32;3.95;;;18.00;99.90;;;;;;4984595;28;20387;-80
2021/09/12 00:45:53;;;;;;;11.93;3.95;;;18.00;99.90;;;;;;4987473;28;20210;-81
2021/09/12 00:48:20;;;;;;;11.25;4.00;;;18.00;99.90;;;;;;5003743;28;20332;-80
2021/09/12 00:50:47;;;;;;;10.95;4.15;;;18.00;99.90;;;;;;5002812;28;20626;-80
2021/09/12 00:53:16;;;;;;;16.05;4.32;;;18.00;99.90;;;;;;4991574;28;20211;-81
2021/09/12 00:55:45;;;;;;;13.52;4.38;;;18.10;99.90;;;;;;4984069;28;20915;-81
2021/09/12 00:58:14;;;;;;;12.70;4.43;;;18.10;99.90;;;;;;4983854;28;20318;-79
2021/09/12 01:00:43;;;;;;;12.65;4.60;;;18.10;99.90;;;;;;4983277;28;20220;-80
2021/09/12 01:03:10;;;;;;;13.73;4.55;;;18.10;99.90;;;;;;4984163;28;20212;-80
2021/09/12 01:05:38;;;;;;;11.90;4.00;;;18.10;99.90;;;;;;4983725;28;20203;-80
2021/09/12 01:08:05;;;;;;;18.02;5.18;;;18.10;99.90;;;;;;4983563;28;20715;-79
2021/09/12 01:10:32;;;;;;;11.00;3.95;;;18.10;99.90;;;;;;4983338;28;20488;-79
2021/09/12 01:12:59;;;;;;;12.80;5.07;;;18.00;99.90;;;;;;4983216;28;20215;-80
2021/09/12 01:15:26;;;;;;;16.40;4.90;;;18.00;99.90;;;;;;4984914;28;20203;-81
2021/09/12 01:17:54;;;;;;;15.18;4.40;;;18.00;99.90;;;;;;4984220;28;20200;-78
2021/09/12 01:20:21;;;;;;;14.00;4.80;;;18.00;99.90;;;;;;4984713;28;20211;-80
2021/09/12 01:22:48;;;;;;;11.15;4.00;;;18.00;99.90;;;;;;4983185;28;20204;-80
2021/09/12 01:25:16;;;;;;;10.95;4.20;;;18.00;99.90;;;;;;4983656;28;20227;-82
2021/09/12 01:27:43;;;;;;;14.27;4.70;;;17.90;99.90;;;;;;4983073;28;20523;-80
2021/09/12 01:30:10;;;;;;;17.17;5.10;;;17.90;99.90;;;;;;4983855;28;20511;-80
2021/09/12 01:32:38;;;;;;;15.27;5.07;;;17.90;99.90;;;;;;4982643;28;20502;-82
2021/09/12 01:35:06;;;;;;;14.15;4.50;;;17.80;99.90;;;;;;4982482;28;20212;-82
2021/09/12 01:37:33;;;;;;;20.08;4.50;;;17.80;99.90;;;;;;4983993;28;20204;-80
2021/09/12 01:40:00;;;;;;;16.50;4.10;;;17.80;99.90;;;;;;4983602;28;20204;-82
2021/09/12 01:42:28;;;;;;;19.50;4.35;;;17.90;99.90;;;;;;4996037;28;20258;-83
2021/09/12 01:44:55;;;;;;;17.38;4.85;;;17.90;99.90;;;;;;5002297;28;20210;-81
2021/09/12 01:47:21;;;;;;;14.18;4.47;;;17.80;99.90;;;;;;5003179;28;20195;-82
2021/09/12 01:49:48;;;;;;;11.48;3.90;;;17.80;99.90;;;;;;4984578;28;20244;-83
2021/09/12 01:52:16;;;;;;;10.20;3.60;;;17.80;99.90;;;;;;4983170;28;20208;-78
2021/09/12 01:54:43;;;;;;;15.38;5.03;;;17.80;99.90;;;;;;4983789;28;20208;-81
2021/09/12 01:57:09;;;;;;;12.20;4.35;;;17.80;99.90;;;;;;4983198;28;20208;-83
2021/09/12 01:59:38;;;;;;;15.88;4.80;;;17.80;99.90;;;;;;4983388;28;20207;-83
2021/09/12 02:02:05;;;;;;;11.63;3.95;;;17.80;99.90;;;;;;4982764;28;20597;-82
2021/09/12 02:04:32;;;;;;;14.68;3.70;;;17.90;99.90;;;;;;4983163;28;20341;-81
2021/09/12 02:06:59;;;;;;;10.35;3.60;;;17.80;99.90;;;;;;4982004;28;20243;-80
2021/09/12 02:09:27;;;;;;;13.65;3.70;;;17.80;99.90;;;;;;4982139;28;20223;-81
2021/09/12 02:11:54;;;;;;;11.60;4.82;;;17.80;99.90;;;;;;4982108;28;20208;-80
2021/09/12 02:14:21;;;;;;;11.50;3.65;;;17.80;99.90;;;;;;4982583;28;20525;-81
2021/09/12 02:16:50;;;;;;;17.40;4.82;;;17.80;99.90;;;;;;4980919;28;20216;-78
2021/09/12 02:19:17;;;;;;;11.65;4.05;;;17.80;99.90;;;;;;4983104;28;20203;-79
2021/09/12 02:21:44;;;;;;;10.80;3.50;;;17.80;99.90;;;;;;4982043;28;20290;-80
2021/09/12 02:24:10;;;;;;;9.63;4.03;;;17.80;99.90;;;;;;4983420;28;20223;-80
2021/09/12 02:26:37;;;;;;;14.40;4.25;;;17.80;99.90;;;;;;4983300;28;20219;-79
2021/09/12 02:29:04;;;;;;;9.95;3.85;;;17.80;99.90;;;;;;4982237;28;20216;-81
2021/09/12 02:31:31;;;;;;;19.55;5.00;;;17.80;99.90;;;;;;4982785;28;20565;-81
2021/09/12 02:34:00;;;;;;;10.20;4.05;;;17.80;99.90;;;;;;4982950;28;20207;-80
2021/09/12 02:36:26;;;;;;;14.23;4.15;;;17.80;99.90;;;;;;4982308;28;20196;-81
2021/09/12 02:38:53;;;;;;;15.38;4.35;;;17.80;99.90;;;;;;4992084;28;20208;-79
2021/09/12 02:41:20;;;;;;;13.73;4.78;;;17.80;99.90;;;;;;5001753;28;20216;-80
2021/09/12 02:43:47;;;;;;;12.88;4.60;;;17.80;99.90;;;;;;5001310;28;20207;-80
2021/09/12 02:46:13;;;;;;;19.33;5.60;;;17.80;99.90;;;;;;5001701;28;20210;-80
2021/09/12 02:48:40;;;;;;;12.38;5.03;;;17.90;99.90;;;;;;4989467;28;20227;-79
2021/09/12 02:51:08;;;;;;;15.32;5.40;;;17.90;99.90;;;;;;4983122;28;20207;-79
2021/09/12 02:53:35;;;;;;;17.17;5.43;;;17.90;99.90;;;;;;4982387;28;20886;-79
2021/09/12 02:56:02;;;;;;;20.20;5.68;;;17.90;99.90;;;;;;4982578;28;20204;-79
2021/09/12 02:58:29;;;;;;;15.43;4.82;;;17.90;99.90;;;;;;4981842;28;20538;-81
2021/09/12 03:00:56;;;;;;;15.63;4.72;;;17.90;99.90;;;;;;4981940;28;20206;-82
2021/09/12 03:03:23;;;;;;;19.08;5.55;;;17.90;99.90;;;;;;4997757;28;20265;-81
2021/09/12 03:05:50;;;;;;;18.27;5.22;;;17.90;99.90;;;;;;5000694;28;20215;-79
2021/09/12 03:08:18;;;;;;;11.35;4.70;;;17.90;99.90;;;;;;5000967;28;20231;-80
2021/09/12 03:10:45;;;;;;;9.75;4.38;;;17.90;99.90;;;;;;4984399;28;20222;-82
2021/09/12 03:13:11;;;;;;;14.70;5.03;;;17.90;99.90;;;;;;4982366;28;20203;-81
2021/09/12 03:15:38;;;;;;;12.95;4.45;;;17.90;99.90;;;;;;4980612;28;20211;-80
2021/09/12 03:18:05;;;;;;;17.40;4.65;;;17.90;99.90;;;;;;4979462;28;20213;-82
2021/09/12 03:20:32;;;;;;;16.23;4.78;;;17.90;99.90;;;;;;4983281;28;20204;-83
2021/09/12 03:22:59;;;;;;;17.05;4.78;;;17.90;99.90;;;;;;4983442;28;20208;-83
2021/09/12 03:25:27;;;;;;;12.02;5.10;;;17.90;99.90;;;;;;4986777;28;20204;-81
2021/09/12 03:27:54;;;;;;;12.90;5.45;;;17.90;99.90;;;;;;4986252;28;20208;-80
2021/09/12 03:30:21;;;;;;;17.30;5.15;;;17.90;99.90;;;;;;4986885;28;20232;-81
2021/09/12 03:32:48;;;;;;;16.45;6.15;;;17.90;99.90;;;;;;4994872;28;20238;-79
2021/09/12 03:35:15;;;;;;;17.08;5.20;;;17.90;99.90;;;;;;5005853;28;20195;-80
2021/09/12 03:37:42;;;;;;;17.75;5.55;;;17.90;99.90;;;;;;5005267;28;20527;-81
2021/09/12 03:40:09;;;;;;;14.23;5.53;;;17.90;99.90;;;;;;5004831;28;20211;-82
2021/09/12 03:42:38;;;;;;;14.02;5.25;;;17.90;99.90;;;;;;5005245;28;20211;-82
2021/09/12 03:45:05;;;;;;;12.32;6.05;;;17.90;99.90;;;;;;5005755;28;20210;-81
2021/09/12 03:47:32;;;;;;;15.10;5.40;;;17.90;99.90;;;;;;5005543;28;20202;-79
2021/09/12 03:49:59;;;;;;;12.68;5.72;;;17.90;99.90;;;;;;5004397;28;20882;-81
2021/09/12 03:52:26;;;;;;;17.90;6.70;;;17.90;99.90;;;;;;5005373;28;20219;-81
2021/09/12 03:54:53;;;;;;;21.27;6.97;;;17.90;99.90;;;;;;5004908;28;20207;-80
2021/09/12 03:57:20;;;;;;;11.85;6.28;;;17.90;99.90;;;;;;5004371;28;20213;-81
2021/09/12 03:59:48;;;;;;;14.30;5.95;;;17.90;99.90;;;;;;5004730;28;20206;-79
2021/09/12 04:02:15;;;;;;;19.73;6.95;;;17.90;99.90;;;;;;4997405;28;20212;-80
2021/09/12 04:04:42;;;;;;;15.00;5.68;;;17.90;99.90;;;;;;4985033;28;20196;-81
2021/09/12 04:07:09;;;;;;;10.27;5.38;;;17.90;99.90;;;;;;4984216;28;20930;-80
2021/09/12 04:09:36;;;;;;;15.05;6.50;;;17.90;99.90;;;;;;4984811;28;20227;-80
2021/09/12 04:12:03;;;;;;;12.55;5.45;;;17.90;99.90;;;;;;4984786;28;20203;-78
2021/09/12 04:14:29;;;;;;;16.10;6.18;;;17.90;99.90;;;;;;4990870;28;20497;-79
2021/09/12 04:16:57;;;;;;;12.10;5.40;;;17.90;99.90;;;;;;5003649;28;20199;-81
2021/09/12 04:19:24;;;;;;;19.48;6.03;;;17.90;99.90;;;;;;5004439;28;20203;-82
2021/09/12 04:21:51;;;;;;;16.27;6.03;;;17.90;99.90;;;;;;5003415;28;20527;-79
2021/09/12 04:24:18;;;;;;;14.35;5.75;;;18.00;99.90;;;;;;5003695;28;20570;-81
2021/09/12 04:26:45;;;;;;;13.27;5.00;;;18.00;99.90;;;;;;5003005;28;20191;-81
2021/09/12 04:29:11;;;;;;;12.27;4.72;;;18.00;99.90;;;;;;4993392;28;20232;-80
2021/09/12 04:31:38;;;;;;;15.90;4.80;;;18.00;99.90;;;;;;4984182;28;20208;-79
2021/09/12 04:34:06;;;;;;;11.20;4.80;;;18.00;99.90;;;;;;4983492;28;20204;-79
2021/09/12 04:36:33;;;;;;;13.32;5.85;;;18.00;99.90;;;;;;4983721;28;20207;-80
2021/09/12 04:39:00;;;;;;;15.98;5.78;;;18.00;99.90;;;;;;4983830;28;20207;-79
2021/09/12 04:41:27;;;;;;;9.18;4.47;;;18.00;99.90;;;;;;4983036;28;20211;-80
2021/09/12 04:43:54;;;;;;;11.98;5.32;;;18.00;99.90;;;;;;4983196;28;20219;-81
2021/09/12 04:46:20;;;;;;;10.80;5.10;;;18.00;99.90;;;;;;4984105;28;20219;-81
2021/09/12 04:48:47;;;;;;;9.88;4.82;;;18.00;99.90;;;;;;4982520;28;20220;-81
2021/09/12 04:51:15;;;;;;;7.75;4.55;;;18.00;99.90;;;;;;4983493;28;20219;-79
2021/09/12 04:53:42;;;;;;;13.98;5.93;;;18.00;99.90;;;;;;4983668;28;20591;-80
2021/09/12 04:56:09;;;;;;;11.00;5.32;;;18.00;99.90;;;;;;4983167;28;20531;-80
2021/09/12 04:58:35;;;;;;;17.95;6.00;;;18.00;99.90;;;;;;4983403;28;20523;-80
2021/09/12 05:01:02;;;;;;;12.77;5.38;;;18.00;99.90;;;;;;4983178;28;20200;-81
2021/09/12 05:03:29;;;;;;;15.40;6.45;;;18.00;99.90;;;;;;4982658;28;20269;-79
2021/09/12 05:05:56;;;;;;;13.55;5.88;;;18.00;99.90;;;;;;4983413;28;20212;-80
2021/09/12 05:08:24;;;;;;;16.05;6.20;;;18.00;99.90;;;;;;4981936;28;20228;-80
2021/09/12 05:10:51;;;;;;;13.63;5.60;;;17.90;99.90;;;;;;4981365;28;20235;-79
2021/09/12 05:13:18;;;;;;;13.93;5.57;;;17.90;99.90;;;;;;4982049;28;20219;-80
2021/09/12 05:15:45;;;;;;;16.63;6.07;;;17.80;99.90;;;;;;4981924;28;20287;-80
2021/09/12 05:18:12;;;;;;;11.48;5.05;;;17.80;99.90;;;;;;4985483;28;20215;-80
2021/09/12 05:20:40;;;;;;;12.15;6.10;;;17.80;99.90;;;;;;5001580;28;20192;-79
2021/09/12 05:23:07;;;;;;;14.27;6.13;;;17.70;99.90;;;;;;5002600;28;20579;-82
2021/09/12 05:25:35;;;;;;;15.27;6.05;;;17.70;99.90;;;;;;4986436;28;20208;-79
2021/09/12 05:28:02;;;;;;;18.52;6.18;;;17.70;99.90;;;;;;4984404;28;20795;-80
2021/09/12 05:30:29;;;;;;;17.65;7.07;;;17.70;99.90;;;;;;5001132;28;20230;-82
2021/09/12 05:32:56;;;;;;;15.52;7.78;;;17.70;99.90;;;;;;5003180;28;20204;-79
2021/09/12 05:35:23;;;;;;;13.73;7.20;;;17.70;99.90;;;;;;5003630;28;20219;-80
2021/09/12 05:37:50;;;;;;;23.33;7.65;;;17.60;99.90;;;;;;4987108;28;20212;-81
2021/09/12 05:40:17;;;;;;;15.07;7.20;;;17.60;99.90;;;;;;4982720;28;20204;-81
2021/09/12 05:42:45;;;;;;;16.60;7.90;;;17.60;99.90;;;;;;4981709;28;20663;-80
2021/09/12 05:45:12;;;;;;;13.57;7.03;;;17.60;99.90;;;;;;4983076;28;20637;-79
2021/09/12 05:47:39;;;;;;;12.65;7.25;;;17.60;99.90;;;;;;4982614;28;20615;-80
2021/09/12 05:50:07;;;;;;;18.40;9.50;;;17.60;99.90;;;;;;4981787;28;20786;-81
2021/09/12 05:52:35;;;;;;;12.45;7.65;;;17.60;99.90;;;;;;4981522;28;20200;-82
2021/09/12 05:55:02;;;;;;;12.15;7.15;;;17.60;99.90;;;;;;4982362;28;20215;-81
2021/09/12 05:57:29;;;;;;;11.48;6.45;;;17.60;99.90;;;;;;4991858;28;20211;-82
2021/09/12 05:59:57;;;;;;;12.73;7.35;;;17.60;99.90;;;;;;5001851;28;20207;-81
2021/09/12 06:02:24;;;;;;;10.60;6.75;;;17.70;99.90;;;;;;5002015;28;20218;-80
2021/09/12 06:04:51;;;;;;;13.57;8.10;;;17.70;99.90;;;;;;5002382;28;20226;-81
2021/09/12 06:07:17;;;;;;;16.95;8.25;;;17.70;99.90;;;;;;4992114;28;20247;-82
2021/09/12 06:09:44;;;;;;;13.25;6.90;;;17.70;99.90;;;;;;4982062;28;20230;-81
2021/09/12 06:12:11;;;;;;;13.70;8.07;;;17.70;99.90;;;;;;4982193;28;20496;-80
2021/09/12 06:14:40;;;;;;;15.52;8.82;;;17.70;99.90;;;;;;4981820;28;20516;-79
2021/09/12 06:17:08;;;;;;;12.95;7.82;;;17.70;99.90;;;;;;4982331;28;20200;-82
2021/09/12 06:19:37;;;;;;;10.63;6.80;;;17.70;99.90;;;;;;4981317;28;20631;-81
2021/09/12 06:22:04;;;;;;;17.02;7.95;;;17.70;99.90;;;;;;4982054;28;20201;-81
2021/09/12 06:24:32;;;;;;;13.18;6.72;;;17.80;99.90;;;;;;4982518;28;20260;-80
2021/09/12 06:26:58;;;;;;;13.13;8.05;;;17.80;99.90;;;;;;4980951;28;20208;-80
2021/09/12 06:29:25;;;;;;;10.50;6.15;;;17.80;99.90;;;;;;4982033;28;20212;-79
2021/09/12 06:31:52;;;;;;;17.70;9.07;;;17.80;99.90;;;;;;4982320;28;20208;-78
2021/09/12 06:34:20;;;;;;;22.98;10.77;;;17.80;99.90;;;;;;4981858;28;20212;-79
2021/09/12 06:36:47;;;;;;;14.57;8.65;;;17.80;99.90;;;;;;4981961;28;20196;-80
2021/09/12 06:39:14;;;;;;;17.63;9.15;;;17.80;99.90;;;;;;4982148;28;20208;-79
2021/09/12 06:41:41;;;;;;;14.45;7.53;;;17.80;99.90;;;;;;4981302;28;20237;-80
2021/09/12 06:44:08;;;;;;;10.80;7.07;;;17.80;99.90;;;;;;4982590;28;20207;-81
2021/09/12 06:46:35;;;;;;;13.32;7.78;;;17.80;99.90;;;;;;4983240;28;20207;-81
2021/09/12 06:49:02;;;;;;;16.92;8.73;;;17.80;99.90;;;;;;4981875;28;20636;-82
2021/09/12 06:51:30;;;;;;;18.92;8.93;;;17.90;99.90;;;;;;4983462;28;20250;-79
2021/09/12 06:53:57;;;;;;;19.33;9.82;;;17.90;99.90;;;;;;4983026;28;20210;-79
2021/09/12 06:56:24;;;;;;;12.05;7.68;;;17.90;99.90;;;;;;4982016;28;20203;-79
2021/09/12 06:58:50;;;;;;;19.55;8.98;;;17.90;99.90;;;;;;4994782;28;20217;-78
2021/09/12 07:01:17;;;;;;;19.30;8.90;;;18.00;99.90;;;;;;5006363;28;20771;-81
2021/09/12 07:04:20;;;;;;;22.02;9.57;;;18.10;99.90;;;;;;5003960;28;20199;-79
2021/09/12 07:06:48;;;;;;;11.85;8.13;;;18.20;99.90;;;;;;4972878;28;20488;-79
2021/09/12 07:09:15;;;;;;;10.43;7.13;;;18.20;99.90;;;;;;5006522;28;20203;-78
2021/09/12 07:11:42;;;;;;;9.02;6.72;;;18.30;99.90;;;;;;4993033;28;20235;-79
2021/09/12 07:14:09;;;;;;;13.15;7.30;;;18.40;99.90;;;;;;4985383;28;20200;-81
2021/09/12 07:16:35;;;;;;;11.45;7.93;;;18.40;99.90;;;;;;4983971;28;20212;-82
2021/09/12 07:19:07;;;;;;;16.90;9.02;;;18.40;99.90;;;;;;4985016;28;20529;-78
2021/09/12 07:21:34;;;;;;;9.32;6.97;;;18.50;99.90;;;;;;4986236;28;20794;-79
2021/09/12 07:24:04;;;;;;;13.50;8.48;;;18.60;99.90;;;;;;4987928;28;20860;-81
2021/09/12 07:26:31;;;;;;;13.95;8.00;;;18.70;99.90;;;;;;5005461;28;20188;-81
2021/09/12 07:28:58;;;;;;;12.55;7.88;;;18.80;99.90;;;;;;5003879;28;20623;-78
2021/09/12 07:31:24;;;;;;;12.95;7.88;;;18.90;99.90;;;;;;5004293;28;20215;-79
2021/09/12 07:33:51;;;;;;;14.30;7.85;;;19.00;99.90;;;;;;4985247;28;20223;-81
2021/09/12 07:36:18;;;;;;;9.68;5.53;;;19.10;99.90;;;;;;4985426;28;20196;-81
2021/09/12 07:38:45;;;;;;;8.88;5.28;;;19.20;99.90;;;;;;4984934;28;20279;-82
2021/09/12 07:41:13;;;;;;;9.27;5.43;;;19.30;99.90;;;;;;4984412;28;20199;-80
2021/09/12 07:43:40;;;;;;;7.55;5.13;;;19.40;99.90;;;;;;4984859;28;20208;-79
2021/09/12 07:46:06;;;;;;;11.68;5.20;;;19.50;99.90;;;;;;4984571;28;20216;-79
2021/09/12 07:48:34;;;;;;;8.88;4.50;;;19.50;99.90;;;;;;4984384;28;20227;-80
2021/09/12 07:51:02;;;;;;;2.72;2.00;;;19.60;99.90;;;;;;4984961;28;20231;-81
2021/09/12 07:53:29;;;;;;;3.10;1.60;;;19.60;99.90;;;;;;4985203;28;20232;-80
2021/09/12 07:55:56;;;;;;;2.50;1.48;;;19.60;99.90;;;;;;4984540;28;20925;-80
2021/09/12 07:58:24;;;;;;;2.25;1.40;;;19.60;99.90;;;;;;4984037;28;20208;-79
2021/09/12 08:00:51;;;;;;;3.50;1.52;;;19.80;99.90;;;;;;4984986;28;20212;-81
2021/09/12 08:03:18;;;;;;;3.33;1.73;;;19.90;99.90;;;;;;4984294;28;20215;-80
2021/09/12 08:05:45;;;;;;;2.45;0.93;;;19.90;99.90;;;;;;4983340;28;20215;-80
2021/09/12 08:08:12;;;;;;;1.73;1.35;;;19.90;99.90;;;;;;4984708;28;20232;-79
2021/09/12 08:10:39;;;;;;;2.40;1.20;;;19.90;99.90;;;;;;4985286;28;20235;-82
2021/09/12 08:13:06;;;;;;;3.80;1.85;;;20.00;99.90;;;;;;4984054;28;20296;-81
2021/09/12 08:15:34;;;;;;;3.97;1.30;;;19.90;99.90;;;;;;4984650;28;20192;-80
2021/09/12 08:18:01;;;;;;;1.88;1.50;;;19.90;99.90;;;;;;4984311;28;20733;-81
2021/09/12 08:20:28;;;;;;;1.67;1.33;;;19.90;99.90;;;;;;4984468;28;20204;-83
2021/09/12 08:22:55;;;;;;;4.78;1.25;;;19.90;99.90;;;;;;4984975;28;20540;-81
2021/09/12 08:25:21;;;;;;;3.55;1.25;;;19.90;99.90;;;;;;4985005;28;20215;-81
2021/09/12 08:27:48;;;;;;;3.88;1.50;;;19.90;99.90;;;;;;4984545;28;20496;-82
2021/09/12 08:30:16;;;;;;;4.00;1.70;;;19.90;99.90;;;;;;4984168;28;20883;-81
2021/09/12 08:32:44;;;;;;;5.22;1.67;;;19.90;99.90;;;;;;5002013;28;20226;-78
2021/09/12 08:35:11;;;;;;;4.47;1.30;;;19.90;99.90;;;;;;5002463;28;20214;-80
2021/09/12 08:37:39;;;;;;;2.60;1.50;;;20.00;99.90;;;;;;5003379;28;20215;-82
2021/09/12 08:40:08;;;;;;;2.05;1.10;;;20.00;99.90;;;;;;5003972;28;20214;-80
2021/09/12 08:42:35;;;;;;;4.43;1.83;;;20.10;99.90;;;;;;5005094;28;20214;-81
2021/09/12 08:45:04;;;;;;;1.88;1.30;;;20.10;99.90;;;;;;4985637;28;20208;-79
2021/09/12 08:47:31;;;;;;;4.28;1.60;;;20.20;99.90;;;;;;4984995;28;20236;-80
2021/09/12 08:49:59;;;;;;;4.43;1.58;;;20.30;99.90;;;;;;4984845;28;20232;-79
2021/09/12 08:52:26;;;;;;;3.78;1.27;;;20.30;99.90;;;;;;4985419;28;20646;-81
2021/09/12 08:54:53;;;;;;;2.05;1.20;;;20.30;99.90;;;;;;4983693;28;20212;-80
2021/09/12 08:57:20;;;;;;;2.72;1.08;;;20.30;99.90;;;;;;4985208;28;20207;-81
2021/09/12 08:59:50;;;;;;;2.50;1.00;;;20.40;99.90;;;;;;4984368;28;20298;-80
2021/09/12 09:02:24;;;;;;;2.92;0.80;;;20.50;99.90;;;;;;4983666;28;20195;-82
2021/09/12 09:04:59;;;;;;;2.55;1.10;;;20.50;99.90;;;;;;4994552;28;20218;-80
2021/09/12 09:07:29;;;;;;;3.20;1.40;;;20.60;99.90;;;;;;5005300;28;20238;-82
2021/09/12 09:09:57;;;;;;;5.93;1.60;;;20.80;99.90;;;;;;5003468;28;20226;-82
2021/09/12 09:12:31;;;;;;;4.05;1.27;;;20.90;99.90;;;;;;5004007;28;20317;-81
2021/09/12 09:15:16;;;;;;;4.18;1.48;;;20.80;99.90;;;;;;4985044;28;20221;-84
2021/09/12 09:17:45;;;;;;;2.10;1.20;;;20.90;99.90;;;;;;4984943;28;20196;-83
2021/09/12 09:20:17;;;;;;;3.10;1.08;;;20.90;99.90;;;;;;4985659;28;20200;-84
2021/09/12 09:22:47;;;;;;;3.38;1.20;;;20.90;99.90;;;;;;4984735;28;20196;-85
2021/09/12 09:25:17;;;;;;;4.68;1.55;;;21.00;99.90;;;;;;4985670;28;20216;-82
2021/09/12 09:28:08;;;;;;;3.35;1.08;;;21.10;99.90;;;;;;4984720;28;20199;-82
2021/09/12 09:30:38;;;;;;;4.47;1.48;;;21.10;99.90;;;;;;4985427;28;20196;-82
2021/09/12 09:33:19;;;;;;;5.63;1.50;;;21.00;99.90;;;;;;5004029;28;20214;-83
2021/09/12 09:36:01;;;;;;;5.50;1.55;;;21.10;99.90;;;;;;5003953;28;20665;-80
2021/09/12 09:38:31;;;;;;;4.72;1.67;;;21.10;99.90;;;;;;4992653;28;20242;-80
2021/09/12 09:41:06;;;;;;;2.90;1.30;;;21.20;99.90;;;;;;4984968;28;20200;-81
2021/09/12 09:43:45;;;;;;;3.00;1.10;;;21.30;99.90;;;;;;4984016;28;20206;-80
2021/09/12 09:46:30;;;;;;;4.72;1.65;;;21.40;99.90;;;;;;4986939;28;20211;-82
2021/09/12 09:48:59;;;;;;;3.80;1.35;;;21.40;99.90;;;;;;4985742;28;20224;-81
2021/09/12 09:51:26;;;;;;;1.88;1.33;;;21.50;99.90;;;;;;4985488;28;20235;-81
2021/09/12 09:53:56;;;;;;;2.28;1.30;;;21.50;99.90;;;;;;4985514;28;20227;-80
2021/09/12 09:56:24;;;;;;;3.55;1.58;;;21.50;99.90;;;;;;5005609;28;20651;-82
2021/09/12 09:58:51;;;;;;;4.43;1.45;;;21.40;99.90;;;;;;5005246;28;20195;-82
2021/09/12 10:01:18;;;;;;;2.40;1.45;;;21.40;99.90;;;;;;5005752;28;20237;-83
2021/09/12 10:03:47;;;;;;;2.13;1.35;;;21.30;99.90;;;;;;4986368;28;20291;-81
2021/09/12 10:06:14;;;;;;;2.85;1.52;;;21.20;99.90;;;;;;4985764;28;20242;-84
2021/09/12 10:08:42;;;;;;;3.28;1.50;;;21.30;99.90;;;;;;4986526;28;20948;-87
2021/09/12 10:11:11;;;;;;;4.80;1.45;;;21.30;99.90;;;;;;4987455;28;21095;-86
2021/09/12 10:13:39;;;;;;;4.78;1.35;;;21.30;99.90;;;;;;4987065;28;20769;-82
2021/09/12 10:16:08;;;;;;;1.55;0.90;;;21.30;99.90;;;;;;4986720;28;20935;-80
2021/09/12 10:18:36;;;;;;;3.40;1.75;;;21.40;99.90;;;;;;4985099;28;20207;-82
2021/09/12 10:21:29;;;;;;;2.50;1.02;;;21.60;99.90;;;;;;4988575;28;20196;-82
2021/09/12 10:23:58;;;;;;;2.67;0.98;;;21.60;99.90;;;;;;4998503;28;20310;-84
2021/09/12 10:26:32;;;;;;;4.07;1.20;;;21.80;99.90;;;;;;5006209;28;20203;-86
2021/09/12 10:28:59;;;;;;;1.95;1.13;;;21.90;99.90;;;;;;5006308;28;20211;-85
2021/09/12 10:31:34;;;;;;;5.03;1.45;;;22.10;99.90;;;;;;5005761;28;20234;-85
2021/09/12 10:34:06;;;;;;;4.47;1.42;;;22.00;99.90;;;;;;5003646;28;20207;-84
2021/09/12 10:36:33;;;;;;;4.75;1.60;;;22.20;99.90;;;;;;4993642;28;20219;-81
2021/09/12 10:39:27;;;;;;;4.10;1.40;;;22.30;99.90;;;;;;4985021;28;20208;-86
2021/09/12 10:42:20;;;;;;;2.35;1.13;;;22.50;99.90;;;;;;4997867;28;20636;-81
2021/09/12 10:45:22;;;;;;;2.85;1.42;;;22.70;99.90;;;;;;5009757;28;20211;-85
2021/09/12 10:47:49;;;;;;;2.65;1.30;;;22.80;99.90;;;;;;5006034;28;20210;-83
2021/09/12 10:50:44;;;;;;;3.55;1.20;;;23.10;99.90;;;;;;5002937;28;20222;-80
2021/09/12 10:53:12;;;;;;;4.60;1.35;;;23.10;99.90;;;;;;5002785;28;20196;-83
2021/09/12 10:56:01;;;;;;;4.85;1.35;;;23.10;99.90;;;;;;4999881;28;20211;-84
2021/09/12 10:58:31;;;;;;;1.65;0.90;;;23.20;99.90;;;;;;4982984;28;20215;-80
2021/09/12 11:00:59;;;;;;;2.90;1.17;;;23.10;99.90;;;;;;4981506;28;20698;-83
2021/09/12 11:03:27;;;;;;;3.58;1.17;;;23.20;99.90;;;;;;4984098;28;20220;-83
2021/09/12 11:05:53;;;;;;;2.35;1.17;;;23.40;99.90;;;;;;4984600;28;20214;-81
2021/09/12 11:08:33;;;;;;;1.70;0.82;;;23.50;99.90;;;;;;4982202;28;20535;-83
2021/09/12 11:11:02;;;;;;;4.53;1.33;;;23.50;99.90;;;;;;4989981;28;20672;-84
2021/09/12 11:13:31;;;;;;;3.33;1.10;;;23.50;99.90;;;;;;4996603;28;20280;-83
2021/09/12 11:16:06;;;;;;;2.70;1.25;;;23.40;99.90;;;;;;4997002;28;20215;-85
2021/09/12 11:18:42;;;;;;;3.22;1.25;;;23.40;99.90;;;;;;4991559;28;20233;-81
2021/09/12 11:21:09;;;;;;;4.60;1.08;;;23.40;99.90;;;;;;4993355;28;20200;-80
2021/09/12 11:23:37;;;;;;;1.80;0.98;;;23.40;99.90;;;;;;4983803;28;20226;-81
2021/09/12 11:26:05;;;;;;;2.78;1.30;;;23.30;99.90;;;;;;4983459;28;20321;-84
2021/09/12 11:28:35;;;;;;;1.63;1.02;;;23.40;99.90;;;;;;4982758;28;20212;-84
2021/09/12 11:31:02;;;;;;;2.58;1.13;;;23.40;99.90;;;;;;4981738;28;20294;-84
2021/09/12 11:33:52;;;;;;;3.42;1.35;;;23.30;99.90;;;;;;4983729;28;20222;-83
2021/09/12 11:36:19;;;;;;;4.20;0.90;;;23.10;99.90;;;;;;4983060;28;20219;-84
2021/09/12 11:38:55;;;;;;;2.80;0.93;;;23.00;99.90;;;;;;4990547;28;20191;-83
2021/09/12 11:41:23;;;;;;;3.63;1.30;;;23.00;99.90;;;;;;5004548;28;20307;-80
2021/09/12 11:43:56;;;;;;;3.28;0.80;;;22.80;99.90;;;;;;4985527;28;20576;-88
2021/09/12 11:46:23;;;;;;;2.53;0.95;;;22.90;99.90;;;;;;4987501;28;20211;-81
2021/09/12 11:48:54;;;;;;;2.30;1.10;;;23.10;99.90;;;;;;4988573;28;20238;-84
2021/09/12 11:51:26;;;;;;;2.38;0.98;;;23.20;99.90;;;;;;5008984;28;20215;-85
2021/09/12 11:54:04;;;;;;;1.98;1.00;;;23.30;99.90;;;;;;5006357;28;20192;-85
2021/09/12 11:56:32;;;;;;;2.03;1.10;;;23.30;99.90;;;;;;4988943;28;20212;-82
2021/09/12 11:59:02;;;;;;;3.97;1.27;;;23.40;99.90;;;;;;4985780;28;20211;-82
2021/09/12 12:01:29;;;;;;;4.10;1.20;;;23.40;99.90;;;;;;4986701;28;20265;-81
2021/09/12 12:03:56;;;;;;;2.90;1.10;;;23.30;99.90;;;;;;4986166;28;20212;-81
2021/09/12 12:06:23;;;;;;;3.08;1.13;;;23.30;99.90;;;;;;5005277;28;20214;-85
2021/09/12 12:09:09;;;;;;;2.17;1.00;;;23.10;99.90;;;;;;5004884;28;20223;-82
2021/09/12 12:11:39;;;;;;;2.72;1.00;;;23.30;99.90;;;;;;4993032;28;20706;-84
2021/09/12 12:14:09;;;;;;;3.65;1.02;;;23.30;99.90;;;;;;4985978;28;20200;-80
2021/09/12 12:16:41;;;;;;;3.25;1.40;;;23.20;99.90;;;;;;4985292;28;20811;-83
2021/09/12 12:19:11;;;;;;;3.60;1.40;;;23.10;99.90;;;;;;4986780;28;20200;-86
2021/09/12 12:21:39;;;;;;;2.92;1.23;;;23.00;99.90;;;;;;4986496;28;20627;-85
2021/09/12 12:24:14;;;;;;;3.20;1.40;;;23.00;99.90;;;;;;4985928;28;20208;-82
2021/09/12 12:26:44;;;;;;;1.73;0.80;;;22.80;99.90;;;;;;4986006;28;20225;-79
2021/09/12 12:29:12;;;;;;;4.18;1.15;;;22.60;99.90;;;;;;4985733;28;20212;-81
2021/09/12 12:31:41;;;;;;;2.50;1.35;;;22.50;99.90;;;;;;4987431;28;20234;-79
2021/09/12 12:34:08;;;;;;;2.20;0.85;;;22.40;99.90;;;;;;4985639;28;20215;-81
2021/09/12 12:36:35;;;;;;;2.15;1.10;;;22.40;99.90;;;;;;4987374;28;20215;-83
2021/09/12 12:39:17;;;;;;;2.22;1.05;;;22.40;99.90;;;;;;4988154;28;20211;-83
2021/09/12 12:41:55;;;;;;;2.78;1.02;;;22.40;99.90;;;;;;5006081;28;20282;-84
2021/09/12 12:44:24;;;;;;;2.05;0.90;;;22.50;99.90;;;;;;5007739;28;20214;-82
2021/09/12 12:46:53;;;;;;;3.97;1.08;;;22.60;99.90;;;;;;5005523;28;20208;-85
2021/09/12 12:49:27;;;;;;;3.95;1.35;;;22.50;99.90;;;;;;5000039;28;20265;-85